createdAt,value
2023-04-23T00:01:39.389Z,97642.13
2023-04-23T00:04:09.779Z,97644.75
2023-04-23T00:06:38.291Z,97645.72
2023-04-23T00:09:07.438Z,97640.75
2023-04-23T00:11:35.347Z,97634.25
2023-04-23T00:14:02.794Z,97635.06
2023-04-23T00:16:30.989Z,97644.69
2023-04-23T00:18:58.166Z,97633.81
2023-04-23T00:21:25.735Z,97643.91
2023-04-23T00:23:53.044Z,97629.41
2023-04-23T00:26:20.887Z,97633.25
2023-04-23T00:28:48.132Z,97637.41
2023-04-23T00:31:15.840Z,97638.66
2023-04-23T00:33:43.161Z,97632.84
2023-04-23T00:36:10.730Z,97631.47
2023-04-23T00:38:38.025Z,97623.19
2023-04-23T00:41:07.046Z,97634.34
2023-04-23T00:43:34.460Z,97632.84
2023-04-23T00:46:02.645Z,97622.22
2023-04-23T00:48:30.382Z,97622.31
2023-04-23T00:51:03.282Z,97620.81
2023-04-23T00:53:30.903Z,97616.47
2023-04-23T00:56:00.141Z,97625.88
2023-04-23T00:58:28.632Z,97622.75
2023-04-23T01:00:57.031Z,97627.28
2023-04-23T01:03:27.095Z,97626.03
2023-04-23T01:05:55.034Z,97625.34
2023-04-23T01:08:25.820Z,97629.63
2023-04-23T01:10:54.784Z,97632.38
2023-04-23T01:13:22.574Z,97633.41
2023-04-23T01:15:50.726Z,97638.53
2023-04-23T01:18:20.148Z,97639.53
2023-04-23T01:20:47.805Z,97632.81
2023-04-23T01:23:16.262Z,97634.66
2023-04-23T01:25:44.223Z,97631.47
2023-04-23T01:28:11.886Z,97638.94
2023-04-23T01:30:42.584Z,97625.19
2023-04-23T01:33:11.746Z,97627.78
2023-04-23T01:35:41.110Z,97636.22
2023-04-23T01:38:11.894Z,97628.19
2023-04-23T01:40:39.427Z,97636.75
2023-04-23T01:43:08.832Z,97634.47
2023-04-23T01:45:36.946Z,97628.78
2023-04-23T01:48:04.618Z,97633.06
2023-04-23T01:50:32.341Z,97627.25
2023-04-23T01:52:59.586Z,97623.53
2023-04-23T01:55:27.468Z,97631.84
2023-04-23T01:57:54.997Z,97630.63
2023-04-23T02:00:22.562Z,97629.66
2023-04-23T02:02:52.663Z,97627.81
2023-04-23T02:05:20.721Z,97628.75
2023-04-23T02:07:50.696Z,97625.56
2023-04-23T02:10:21.310Z,97627.91
2023-04-23T02:12:49.121Z,97621.09
2023-04-23T02:15:17.030Z,97615.16
2023-04-23T02:17:44.348Z,97621.91
2023-04-23T02:20:12.749Z,97615.72
2023-04-23T02:22:42.186Z,97616.22
2023-04-23T02:25:10.831Z,97620.91
2023-04-23T02:27:38.224Z,97613.41
2023-04-23T02:30:08.535Z,97610.56
2023-04-23T02:32:37.462Z,97610.22
2023-04-23T02:35:06.773Z,97605.25
2023-04-23T02:37:34.209Z,97604.53
2023-04-23T02:40:02.249Z,97609.72
2023-04-23T02:42:29.561Z,97602.38
2023-04-23T02:44:57.087Z,97602.88
2023-04-23T02:47:24.513Z,97600.97
2023-04-23T02:49:52.263Z,97600.66
2023-04-23T02:52:19.551Z,97597.38
2023-04-23T02:54:47.087Z,97607.03
2023-04-23T02:57:16.443Z,97604.47
2023-04-23T02:59:44.129Z,97612.53
2023-04-23T03:02:11.535Z,97605.03
2023-04-23T03:04:40.109Z,97607.28
2023-04-23T03:07:07.616Z,97611.03
2023-04-23T03:09:35.146Z,97606.19
2023-04-23T03:12:02.511Z,97610.47
2023-04-23T03:14:30.118Z,97610.25
2023-04-23T03:16:57.465Z,97605.91
2023-04-23T03:19:25.085Z,97603.88
2023-04-23T03:21:52.313Z,97607.19
2023-04-23T03:24:19.778Z,97603.03
2023-04-23T03:26:46.990Z,97606.47
2023-04-23T03:29:14.649Z,97599.69
2023-04-23T03:31:41.916Z,97600.53
2023-04-23T03:34:09.518Z,97601.22
2023-04-23T03:36:36.760Z,97601.38
2023-04-23T03:39:04.410Z,97604.69
2023-04-23T03:41:31.630Z,97598.63
2023-04-23T03:43:59.234Z,97603.84
2023-04-23T03:46:26.534Z,97600.88
2023-04-23T03:48:54.114Z,97611.59
2023-04-23T03:51:21.658Z,97597.66
2023-04-23T03:53:49.956Z,97609.53
2023-04-23T03:56:17.203Z,97600.63
2023-04-23T03:58:46.395Z,97605.00
2023-04-23T04:01:13.883Z,97612.03
2023-04-23T04:03:41.637Z,97610.84
2023-04-23T04:06:09.693Z,97609.41
2023-04-23T04:08:37.210Z,97607.63
2023-04-23T04:11:04.527Z,97600.78
2023-04-23T04:13:31.998Z,97604.19
2023-04-23T04:15:59.262Z,97601.69
2023-04-23T04:18:26.811Z,97607.06
2023-04-23T04:20:55.220Z,97607.72
2023-04-23T04:23:22.720Z,97614.50
2023-04-23T04:25:51.196Z,97606.47
2023-04-23T04:28:18.683Z,97607.84
2023-04-23T04:30:47.363Z,97615.59
2023-04-23T04:33:15.207Z,97610.09
2023-04-23T04:35:42.914Z,97612.47
2023-04-23T04:38:10.515Z,97602.63
2023-04-23T04:40:37.888Z,97605.06
2023-04-23T04:43:05.537Z,97608.38
2023-04-23T04:45:32.800Z,97604.31
2023-04-23T04:48:00.514Z,97604.22
2023-04-23T04:50:28.926Z,97606.19
2023-04-23T04:52:56.450Z,97605.97
2023-04-23T04:55:23.647Z,97613.47
2023-04-23T04:57:51.204Z,97621.88
2023-04-23T05:00:27.936Z,97625.78
2023-04-23T05:02:59.301Z,97622.34
2023-04-23T05:05:28.013Z,97624.50
2023-04-23T05:07:55.665Z,97617.97
2023-04-23T05:10:22.901Z,97621.38
2023-04-23T05:12:52.066Z,97620.50
2023-04-23T05:15:19.409Z,97628.78
2023-04-23T05:17:47.293Z,97616.22
2023-04-23T05:20:14.811Z,97623.31
2023-04-23T05:22:43.254Z,97622.16
2023-04-23T05:25:12.330Z,97618.25
2023-04-23T05:27:41.123Z,97623.38
2023-04-23T05:30:11.173Z,97620.38
2023-04-23T05:32:39.313Z,97619.13
2023-04-23T05:35:07.259Z,97617.09
2023-04-23T05:37:35.714Z,97622.75
2023-04-23T05:40:04.908Z,97628.16
2023-04-23T05:42:32.981Z,97625.53
2023-04-23T05:45:00.170Z,97624.81
2023-04-23T05:47:29.840Z,97620.44
2023-04-23T05:49:57.572Z,97620.59
2023-04-23T05:52:25.358Z,97616.16
2023-04-23T05:54:52.551Z,97622.69
2023-04-23T05:57:20.187Z,97613.53
2023-04-23T05:59:47.419Z,97625.97
2023-04-23T06:02:16.009Z,97619.59
2023-04-23T06:04:43.763Z,97619.22
2023-04-23T06:07:12.622Z,97621.41
2023-04-23T06:09:39.894Z,97626.53
2023-04-23T06:12:07.912Z,97619.00
2023-04-23T06:14:35.164Z,97621.31
2023-04-23T06:17:02.945Z,97616.97
2023-04-23T06:19:30.261Z,97616.63
2023-04-23T06:21:57.999Z,97613.13
2023-04-23T06:24:25.332Z,97615.44
2023-04-23T06:26:52.917Z,97624.19
2023-04-23T06:29:20.176Z,97617.31
2023-04-23T06:31:47.888Z,97613.03
2023-04-23T06:34:15.960Z,97615.97
2023-04-23T06:36:44.003Z,97616.84
2023-04-23T06:39:11.485Z,97612.59
2023-04-23T06:41:39.944Z,97612.56
2023-04-23T06:44:07.168Z,97613.59
2023-04-23T06:46:34.793Z,97612.69
2023-04-23T06:49:02.098Z,97604.53
2023-04-23T06:51:29.968Z,97607.56
2023-04-23T06:53:57.366Z,97608.09
2023-04-23T06:56:25.897Z,97612.00
2023-04-23T06:58:53.301Z,97603.28
2023-04-23T07:01:21.033Z,97610.09
2023-04-23T07:03:51.431Z,97601.94
2023-04-23T07:06:19.098Z,97604.13
2023-04-23T07:08:46.448Z,97608.09
2023-04-23T07:11:14.070Z,97604.63
2023-04-23T07:13:42.576Z,97602.81
2023-04-23T07:16:10.213Z,97610.06
2023-04-23T07:18:37.467Z,97600.03
2023-04-23T07:21:05.125Z,97605.13
2023-04-23T07:23:32.362Z,97604.13
2023-04-23T07:25:59.891Z,97605.13
2023-04-23T07:28:27.191Z,97603.47
2023-04-23T07:30:54.749Z,97606.06
2023-04-23T07:33:22.379Z,97603.31
2023-04-23T07:35:50.042Z,97596.19
2023-04-23T07:38:17.273Z,97607.88
2023-04-23T07:40:45.062Z,97594.53
2023-04-23T07:43:12.554Z,97589.38
2023-04-23T07:45:40.635Z,97593.22
2023-04-23T07:48:26.701Z,97606.88
2023-04-23T07:50:54.562Z,97596.03
2023-04-23T07:53:22.178Z,97587.91
2023-04-23T07:55:49.724Z,97596.38
2023-04-23T07:58:17.401Z,97585.97
2023-04-23T08:00:44.944Z,97592.78
2023-04-23T08:03:12.327Z,97591.41
2023-04-23T08:05:41.549Z,97585.56
2023-04-23T08:08:11.538Z,97582.28
2023-04-23T08:10:39.256Z,97586.16
2023-04-23T08:13:06.557Z,97580.31
2023-04-23T08:15:34.535Z,97589.72
2023-04-23T08:18:04.437Z,97577.09
2023-04-23T08:20:32.701Z,97582.69
2023-04-23T08:23:00.236Z,97562.91
2023-04-23T08:25:28.132Z,97569.38
2023-04-23T08:27:55.862Z,97577.78
2023-04-23T08:30:23.654Z,97579.19
2023-04-23T08:32:56.081Z,97566.63
2023-04-23T08:35:24.419Z,97587.53
2023-04-23T08:37:51.899Z,97563.16
2023-04-23T08:40:19.485Z,97556.75
2023-04-23T08:42:51.743Z,97566.63
2023-04-23T08:45:19.907Z,97556.63
2023-04-23T08:47:47.962Z,97564.28
2023-04-23T08:50:23.419Z,97554.94
2023-04-23T08:52:54.358Z,97557.25
2023-04-23T08:55:23.967Z,97547.63
2023-04-23T08:57:52.262Z,97562.75
2023-04-23T09:00:23.381Z,97561.38
2023-04-23T09:02:51.241Z,97542.78
2023-04-23T09:05:19.092Z,97551.47
2023-04-23T09:07:46.685Z,97543.47
2023-04-23T09:10:18.487Z,97557.22
2023-04-23T09:12:48.366Z,97550.44
2023-04-23T09:15:16.959Z,97561.06
2023-04-23T09:17:47.168Z,97563.00
2023-04-23T09:20:15.625Z,97567.16
2023-04-23T09:22:55.365Z,97568.13
2023-04-23T09:25:24.297Z,97592.75
2023-04-23T09:27:53.252Z,97567.59
2023-04-23T09:30:20.833Z,97557.72
2023-04-23T09:32:49.817Z,97553.19
2023-04-23T09:35:22.355Z,97553.72
2023-04-23T09:37:53.081Z,97566.75
2023-04-23T09:40:25.328Z,97552.41
2023-04-23T09:42:55.108Z,97556.91
2023-04-23T09:45:25.888Z,97582.66
2023-04-23T09:47:57.177Z,97555.97
2023-04-23T09:50:39.557Z,97561.91
2023-04-23T09:53:10.737Z,97563.66
2023-04-23T09:55:40.908Z,97554.19
2023-04-23T09:58:15.841Z,97550.88
2023-04-23T10:00:43.846Z,97549.84
2023-04-23T10:03:12.486Z,97543.22
2023-04-23T10:05:59.594Z,97526.66
2023-04-23T10:08:30.247Z,97507.59
2023-04-23T10:11:10.037Z,97524.59
2023-04-23T10:13:42.734Z,97527.06
2023-04-23T10:16:21.285Z,97533.06
2023-04-23T10:18:53.240Z,97520.47
2023-04-23T10:21:39.486Z,97518.44
2023-04-23T10:24:11.916Z,97515.09
2023-04-23T10:26:42.666Z,97511.19
2023-04-23T10:29:17.369Z,97501.97
2023-04-23T10:31:46.321Z,97494.66
2023-04-23T10:34:15.744Z,97483.09
2023-04-23T10:36:43.062Z,97473.06
2023-04-23T10:39:12.394Z,97478.53
2023-04-23T10:41:43.781Z,97490.56
2023-04-23T10:44:32.994Z,97482.41
2023-04-23T10:47:06.798Z,97470.34
2023-04-23T10:49:35.924Z,97461.91
2023-04-23T10:54:43.137Z,97470.59
2023-04-23T10:57:11.631Z,97466.97
2023-04-23T11:00:01.466Z,97482.50
2023-04-23T11:02:44.987Z,97467.56
2023-04-23T11:05:12.858Z,97476.72
2023-04-23T11:07:40.319Z,97462.00
2023-04-23T11:10:15.502Z,97438.22
2023-04-23T11:12:45.026Z,97437.44
2023-04-23T11:15:15.538Z,97445.66
2023-04-23T11:17:42.828Z,97432.47
2023-04-23T11:20:15.745Z,97428.31
2023-04-23T11:22:50.433Z,97435.00
2023-04-23T11:25:27.061Z,97419.31
2023-04-23T11:28:01.552Z,97416.16
2023-04-23T11:30:30.982Z,97416.81
2023-04-23T11:33:01.671Z,97423.19
2023-04-23T11:35:32.061Z,97412.91
2023-04-23T11:37:59.317Z,97410.28
2023-04-23T11:40:29.843Z,97414.00
2023-04-23T11:42:57.812Z,97403.16
2023-04-23T11:45:28.602Z,97399.34
2023-04-23T11:47:59.514Z,97398.00
2023-04-23T11:50:30.280Z,97402.03
2023-04-23T11:52:58.017Z,97401.69
2023-04-23T11:55:26.564Z,97411.91
2023-04-23T11:57:53.919Z,97398.28
2023-04-23T12:00:24.997Z,97397.22
2023-04-23T12:03:06.465Z,97394.38
2023-04-23T12:05:37.548Z,97398.28
2023-04-23T12:08:11.747Z,97384.19
2023-04-23T12:10:54.796Z,97386.44
2023-04-23T12:13:30.141Z,97396.06
2023-04-23T12:16:01.178Z,97386.88
2023-04-23T12:18:40.470Z,97392.28
2023-04-23T12:21:15.238Z,97387.44
2023-04-23T12:23:45.226Z,97394.75
2023-04-23T12:26:15.694Z,97388.44
2023-04-23T12:28:59.258Z,97382.97
2023-04-23T12:31:30.090Z,97384.09
2023-04-23T12:34:05.905Z,97384.38
2023-04-23T12:36:36.371Z,97377.72
2023-04-23T12:39:30.560Z,97381.34
2023-04-23T12:42:05.493Z,97369.47
2023-04-23T12:44:38.322Z,97370.41
2023-04-23T12:47:15.341Z,97361.78
2023-04-23T12:49:43.923Z,97359.00
2023-04-23T12:52:14.259Z,97360.56
2023-04-23T12:54:42.054Z,97355.16
2023-04-23T12:57:12.983Z,97353.44
2023-04-23T12:59:40.713Z,97346.66
2023-04-23T13:02:09.802Z,97358.91
2023-04-23T13:04:37.273Z,97370.31
2023-04-23T13:07:05.154Z,97350.16
2023-04-23T13:09:32.474Z,97354.78
2023-04-23T13:12:00.749Z,97347.97
2023-04-23T13:14:28.568Z,97350.50
2023-04-23T13:16:58.052Z,97345.53
2023-04-23T13:19:25.669Z,97339.97
2023-04-23T13:21:53.836Z,97343.75
2023-04-23T13:24:21.219Z,97333.03
2023-04-23T13:26:48.763Z,97329.66
2023-04-23T13:29:16.318Z,97328.53
2023-04-23T13:31:44.016Z,97330.94
2023-04-23T13:34:11.344Z,97330.81
2023-04-23T13:36:41.608Z,97320.84
2023-04-23T13:39:12.188Z,97331.97
2023-04-23T13:41:42.815Z,97324.31
2023-04-23T13:44:10.280Z,97330.16
2023-04-23T13:46:38.952Z,97319.50
2023-04-23T13:49:06.871Z,97316.44
2023-04-23T13:51:36.107Z,97314.69
2023-04-23T13:54:04.291Z,97314.84
2023-04-23T13:56:32.464Z,97307.97
2023-04-23T13:59:17.619Z,97308.72
2023-04-23T14:01:50.272Z,97314.38
2023-04-23T14:04:19.168Z,97318.94
2023-04-23T14:06:46.751Z,97316.16
2023-04-23T14:09:14.069Z,97310.53
2023-04-23T14:11:41.910Z,97307.84
2023-04-23T14:14:09.328Z,97302.50
2023-04-23T14:16:36.971Z,97310.72
2023-04-23T14:19:04.316Z,97301.06
2023-04-23T14:21:32.019Z,97297.31
2023-04-23T14:24:23.850Z,97291.94
2023-04-23T14:26:51.650Z,97295.22
2023-04-23T14:29:39.425Z,97291.13
2023-04-23T14:32:07.661Z,97290.66
2023-04-23T14:34:38.065Z,97293.94
2023-04-23T14:37:06.191Z,97286.53
2023-04-23T14:39:34.724Z,97288.72
2023-04-23T14:42:02.946Z,97282.59
2023-04-23T14:44:30.412Z,97276.81
2023-04-23T14:46:59.372Z,97275.22
2023-04-23T14:49:26.947Z,97283.63
2023-04-23T14:51:54.909Z,97278.41
2023-04-23T14:54:23.105Z,97280.72
2023-04-23T14:56:53.880Z,97276.53
2023-04-23T14:59:22.093Z,97286.34
2023-04-23T15:01:49.945Z,97281.38
2023-04-23T15:04:17.545Z,97287.03
2023-04-23T15:06:45.316Z,97275.84
2023-04-23T15:09:12.582Z,97279.78
2023-04-23T15:11:42.282Z,97273.88
2023-04-23T15:14:25.044Z,97277.53
2023-04-23T15:16:53.209Z,97274.41
2023-04-23T15:19:20.596Z,97280.03
2023-04-23T15:21:48.552Z,97276.69
2023-04-23T15:24:17.326Z,97273.31
2023-04-23T15:26:46.280Z,97264.84
2023-04-23T15:29:13.941Z,97269.13
2023-04-23T15:31:41.984Z,97272.72
2023-04-23T15:34:09.921Z,97268.94
2023-04-23T15:36:38.225Z,97269.66
2023-04-23T15:39:09.380Z,97267.50
2023-04-23T15:41:40.348Z,97273.19
2023-04-23T15:44:12.461Z,97273.13
2023-04-23T15:46:40.805Z,97272.06
2023-04-23T15:49:08.557Z,97260.84
2023-04-23T15:51:37.449Z,97268.25
2023-04-23T15:54:08.620Z,97260.66
2023-04-23T15:56:37.237Z,97259.22
2023-04-23T15:59:05.155Z,97255.81
2023-04-23T16:01:33.091Z,97254.34
2023-04-23T16:06:31.998Z,97249.44
2023-04-23T16:08:59.360Z,97251.72
2023-04-23T16:11:28.407Z,97244.09
2023-04-23T16:13:57.124Z,97242.91
2023-04-23T16:16:25.035Z,97247.66
2023-04-23T16:18:52.500Z,97248.66
2023-04-23T16:21:20.064Z,97245.09
2023-04-23T16:23:47.407Z,97241.34
2023-04-23T16:26:15.264Z,97239.63
2023-04-23T16:28:42.646Z,97239.94
2023-04-23T16:31:10.334Z,97242.41
2023-04-23T16:33:37.720Z,97235.09
2023-04-23T16:36:06.006Z,97237.56
2023-04-23T16:38:33.709Z,97235.72
2023-04-23T16:41:02.228Z,97238.66
2023-04-23T16:43:29.562Z,97229.59
2023-04-23T16:45:58.245Z,97227.19
2023-04-23T16:48:25.535Z,97226.72
2023-04-23T16:50:53.166Z,97227.75
2023-04-23T16:53:20.528Z,97230.91
2023-04-23T16:55:48.666Z,97225.19
2023-04-23T16:58:17.834Z,97220.75
2023-04-23T17:00:47.036Z,97225.06
2023-04-23T17:03:15.973Z,97226.75
2023-04-23T17:05:44.254Z,97226.78
2023-04-23T17:08:11.792Z,97228.03
2023-04-23T17:10:39.736Z,97226.41
2023-04-23T17:13:08.415Z,97233.59
2023-04-23T17:15:36.048Z,97235.00
2023-04-23T17:18:10.622Z,97228.47
2023-04-23T17:20:39.514Z,97235.03
2023-04-23T17:23:06.813Z,97248.97
2023-04-23T17:25:34.433Z,97248.97
2023-04-23T17:28:01.882Z,97248.09
2023-04-23T17:30:29.536Z,97245.97
2023-04-23T17:32:57.097Z,97256.34
2023-04-23T17:35:24.756Z,97253.44
2023-04-23T17:37:52.013Z,97252.56
2023-04-23T17:40:19.870Z,97254.34
2023-04-23T17:42:47.380Z,97259.81
2023-04-23T17:45:15.299Z,97260.38
2023-04-23T17:47:42.707Z,97254.22
2023-04-23T17:50:12.034Z,97257.25
2023-04-23T17:52:44.264Z,97257.47
2023-04-23T17:55:12.747Z,97260.88
2023-04-23T17:57:40.314Z,97252.06
2023-04-23T18:00:12.415Z,97257.31
2023-04-23T18:02:40.467Z,97251.38
2023-04-23T18:05:11.319Z,97251.38
2023-04-23T18:07:40.392Z,97254.13
2023-04-23T18:10:10.123Z,97255.44
2023-04-23T18:12:38.422Z,97261.34
2023-04-23T18:15:07.151Z,97257.38
2023-04-23T18:17:34.523Z,97254.66
2023-04-23T18:20:02.394Z,97256.41
2023-04-23T18:22:29.789Z,97253.47
2023-04-23T18:24:57.535Z,97257.06
2023-04-23T18:27:25.599Z,97260.66
2023-04-23T18:29:53.525Z,97261.38
2023-04-23T18:32:33.710Z,97254.94
2023-04-23T18:35:02.608Z,97259.06
2023-04-23T18:37:47.688Z,97258.16
2023-04-23T18:40:15.414Z,97263.13
2023-04-23T18:42:42.758Z,97264.06
2023-04-23T18:45:11.005Z,97268.44
2023-04-23T18:47:59.461Z,97268.91
2023-04-23T18:50:43.556Z,97268.06
2023-04-23T18:53:10.850Z,97269.09
2023-04-23T18:55:38.441Z,97271.25
2023-04-23T18:58:05.740Z,97271.38
2023-04-23T19:00:33.371Z,97262.91
2023-04-23T19:03:06.483Z,97265.13
2023-04-23T19:05:36.967Z,97264.00
2023-04-23T19:08:04.903Z,97270.69
2023-04-23T19:10:32.565Z,97275.69
2023-04-23T19:12:59.863Z,97278.06
2023-04-23T19:15:27.454Z,97271.47
2023-04-23T19:17:56.026Z,97267.69
2023-04-23T19:20:23.895Z,97277.00
2023-04-23T19:22:51.106Z,97268.94
2023-04-23T19:25:18.812Z,97278.25
2023-04-23T19:27:46.085Z,97278.59
2023-04-23T19:30:13.943Z,97276.31
2023-04-23T19:32:41.332Z,97269.75
2023-04-23T19:35:09.112Z,97268.09
2023-04-23T19:37:37.282Z,97272.72
2023-04-23T19:40:05.463Z,97268.63
2023-04-23T19:42:32.748Z,97268.88
2023-04-23T19:45:00.378Z,97270.06
2023-04-23T19:47:27.782Z,97258.34
2023-04-23T19:49:55.934Z,97264.00
2023-04-23T19:52:27.933Z,97259.72
2023-04-23T19:54:55.645Z,97255.25
2023-04-23T19:57:22.902Z,97253.41
2023-04-23T19:59:50.562Z,97252.41
2023-04-23T20:02:18.035Z,97251.09
2023-04-23T20:04:46.321Z,97256.25
2023-04-23T20:07:13.909Z,97257.06
2023-04-23T20:09:44.730Z,97254.56
2023-04-23T20:12:14.416Z,97249.78
2023-04-23T20:14:42.632Z,97246.84
2023-04-23T20:17:10.394Z,97249.22
2023-04-23T20:19:38.485Z,97252.84
2023-04-23T20:22:06.917Z,97249.53
2023-04-23T20:24:35.807Z,97258.97
2023-04-23T20:27:03.117Z,97257.78
2023-04-23T20:29:30.929Z,97255.13
2023-04-23T20:31:58.252Z,97244.38
2023-04-23T20:34:26.208Z,97252.13
2023-04-23T20:36:53.637Z,97248.66
2023-04-23T20:39:24.373Z,97240.28
2023-04-23T20:41:52.574Z,97246.88
2023-04-23T20:44:22.765Z,97249.91
2023-04-23T20:46:51.420Z,97246.78
2023-04-23T20:49:19.264Z,97246.78
2023-04-23T20:51:46.842Z,97245.31
2023-04-23T20:54:14.508Z,97240.38
2023-04-23T20:56:41.759Z,97252.94
2023-04-23T20:59:09.313Z,97243.69
2023-04-23T21:01:37.946Z,97251.16
2023-04-23T21:04:06.854Z,97244.88
2023-04-23T21:06:34.363Z,97245.25
2023-04-23T21:09:02.023Z,97247.38
2023-04-23T21:11:29.821Z,97239.81
2023-04-23T21:13:59.479Z,97244.50
2023-04-23T21:16:27.937Z,97241.25
2023-04-23T21:18:55.497Z,97241.63
2023-04-23T21:21:27.198Z,97236.53
2023-04-23T21:23:54.751Z,97233.88
2023-04-23T21:26:23.130Z,97235.59
2023-04-23T21:28:50.747Z,97226.13
2023-04-23T21:31:45.244Z,97224.84
2023-04-23T21:34:14.984Z,97227.34
2023-04-23T21:36:44.852Z,97227.03
2023-04-23T21:39:13.751Z,97221.22
2023-04-23T21:41:41.713Z,97221.06
2023-04-23T21:44:09.494Z,97219.25
2023-04-23T21:46:36.876Z,97210.69
2023-04-23T21:49:04.481Z,97216.97
2023-04-23T21:51:37.123Z,97220.13
2023-04-23T21:54:05.978Z,97217.16
2023-04-23T21:56:36.164Z,97220.63
2023-04-23T21:59:04.726Z,97222.63
2023-04-23T22:01:34.252Z,97214.53
2023-04-23T22:04:04.830Z,97215.38
2023-04-23T22:06:34.434Z,97210.25
2023-04-23T22:09:02.304Z,97215.88
2023-04-23T22:11:30.523Z,97220.47
2023-04-23T22:14:00.163Z,97214.72
2023-04-23T22:16:28.747Z,97213.56
2023-04-23T22:18:57.699Z,97214.91
2023-04-23T22:21:25.084Z,97210.63
2023-04-23T22:23:52.733Z,97212.75
2023-04-23T22:26:20.230Z,97208.97
2023-04-23T22:28:47.815Z,97210.44
2023-04-23T22:31:15.079Z,97205.38
2023-04-23T22:33:42.624Z,97201.91
2023-04-23T22:36:09.902Z,97199.75
2023-04-23T22:38:37.445Z,97187.72
2023-04-23T22:41:04.775Z,97195.28
2023-04-23T22:43:32.254Z,97188.00
2023-04-23T22:45:59.761Z,97181.78
2023-04-23T22:48:28.047Z,97194.47
2023-04-23T22:50:55.261Z,97193.81
2023-04-23T22:53:22.780Z,97187.72
2023-04-23T22:55:50.034Z,97185.09
2023-04-23T22:58:17.596Z,97183.81
2023-04-23T23:00:44.858Z,97178.19
2023-04-23T23:03:12.687Z,97176.06
2023-04-23T23:05:40.033Z,97177.84
2023-04-23T23:08:07.589Z,97173.22
2023-04-23T23:10:34.977Z,97172.41
2023-04-23T23:13:02.544Z,97171.75
2023-04-23T23:15:30.110Z,97174.22
2023-04-23T23:17:57.931Z,97166.13
2023-04-23T23:20:25.630Z,97161.03
2023-04-23T23:22:53.309Z,97162.19
2023-04-23T23:25:20.633Z,97158.75
2023-04-23T23:27:48.317Z,97154.78
2023-04-23T23:30:15.716Z,97154.78
2023-04-23T23:32:43.460Z,97160.03
2023-04-23T23:35:10.721Z,97163.19
2023-04-23T23:37:38.286Z,97156.75
2023-04-23T23:40:07.239Z,97157.09
2023-04-23T23:42:34.744Z,97163.69
2023-04-23T23:45:02.059Z,97153.97
2023-04-23T23:47:29.722Z,97152.31
2023-04-23T23:49:57.038Z,97153.13
2023-04-23T23:52:24.631Z,97148.34
2023-04-23T23:54:51.883Z,97148.84
2023-04-23T23:57:19.420Z,97148.38
2023-04-23T23:59:47.139Z,97145.56
